createdAt,value
2023-02-12T00:01:47.668Z,55.30
2023-02-12T00:04:16.816Z,50.50
2023-02-12T00:06:45.276Z,47.80
2023-02-12T00:09:13.747Z,48.70
2023-02-12T00:11:42.131Z,44.80
2023-02-12T00:14:10.479Z,53.20
2023-02-12T00:16:38.880Z,44.60
2023-02-12T00:19:07.303Z,45.30
2023-02-12T00:21:36.016Z,42.20
2023-02-12T00:24:04.888Z,43.20
2023-02-12T00:26:33.517Z,44.00
2023-02-12T00:29:02.900Z,50.70
2023-02-12T00:31:32.248Z,48.80
2023-02-12T00:34:01.017Z,47.80
2023-02-12T00:36:31.547Z,46.50
2023-02-12T00:39:01.081Z,45.60
2023-02-12T00:41:30.271Z,49.40
2023-02-12T00:43:58.676Z,47.20
2023-02-12T00:46:27.282Z,47.00
2023-02-12T00:48:55.653Z,43.30
2023-02-12T00:51:24.078Z,45.40
2023-02-12T00:53:52.512Z,41.50
2023-02-12T00:56:21.031Z,47.70
2023-02-12T00:58:50.948Z,45.90
2023-02-12T01:01:19.470Z,47.00
2023-02-12T01:03:47.927Z,43.60
2023-02-12T01:06:16.328Z,41.40
2023-02-12T01:08:44.744Z,43.70
2023-02-12T01:11:14.432Z,37.70
2023-02-12T01:13:42.937Z,40.70
2023-02-12T01:16:20.430Z,42.80
2023-02-12T01:18:49.990Z,42.70
2023-02-12T01:21:22.344Z,40.00
2023-02-12T01:23:51.541Z,41.80
2023-02-12T01:26:21.915Z,34.80
2023-02-12T01:28:55.236Z,33.20
2023-02-12T01:31:26.760Z,44.10
2023-02-12T01:33:57.998Z,41.60
2023-02-12T01:36:30.207Z,40.50
2023-02-12T01:38:59.351Z,39.60
2023-02-12T01:41:31.375Z,37.50
2023-02-12T01:44:14.068Z,40.30
2023-02-12T01:46:45.162Z,36.50
2023-02-12T01:49:24.241Z,39.40
2023-02-12T01:51:59.297Z,41.40
2023-02-12T01:54:29.410Z,37.40
2023-02-12T01:56:59.654Z,38.20
2023-02-12T01:59:29.582Z,40.50
2023-02-12T02:01:58.666Z,36.70
2023-02-12T02:04:40.605Z,39.50
2023-02-12T02:07:12.287Z,39.00
2023-02-12T02:09:41.144Z,40.10
2023-02-12T02:12:28.924Z,38.10
2023-02-12T02:15:00.776Z,39.70
2023-02-12T02:17:39.515Z,38.90
2023-02-12T02:21:05.671Z,39.20
2023-02-12T02:23:52.354Z,41.10
2023-02-12T02:26:49.009Z,37.40
2023-02-12T02:29:43.355Z,42.60
2023-02-12T02:32:23.656Z,41.90
2023-02-12T02:35:08.680Z,40.10
2023-02-12T02:37:40.448Z,40.40
2023-02-12T02:40:32.086Z,39.80
2023-02-12T02:43:09.771Z,36.10
2023-02-12T02:45:40.426Z,36.90
2023-02-12T02:48:13.649Z,40.20
2023-02-12T02:50:48.626Z,37.60
2023-02-12T02:53:22.624Z,40.60
2023-02-12T02:55:55.934Z,33.90
2023-02-12T02:58:44.417Z,35.90
2023-02-12T03:01:19.383Z,36.50
2023-02-12T03:04:03.970Z,38.40
2023-02-12T03:06:48.857Z,34.30
2023-02-12T03:09:29.112Z,36.50
2023-02-12T03:12:03.598Z,34.40
2023-02-12T03:14:38.638Z,34.80
2023-02-12T03:17:14.347Z,38.60
2023-02-12T03:19:47.241Z,32.30
2023-02-12T03:22:25.389Z,34.40
2023-02-12T03:25:05.675Z,34.80
2023-02-12T03:27:39.895Z,34.60
2023-02-12T03:30:09.262Z,34.50
2023-02-12T03:33:10.216Z,33.10
2023-02-12T03:35:45.259Z,34.30
2023-02-12T03:41:05.222Z,36.50
2023-02-12T03:43:39.337Z,34.30
2023-02-12T03:46:40.468Z,33.20
2023-02-12T03:49:35.290Z,33.50
2023-02-12T03:52:04.946Z,36.70
2023-02-12T03:54:33.729Z,40.60
2023-02-12T03:57:24.028Z,34.60
2023-02-12T03:59:52.488Z,32.40
2023-02-12T04:02:20.846Z,33.80
2023-02-12T04:04:49.515Z,33.60
2023-02-12T04:07:18.302Z,34.30
2023-02-12T04:09:46.636Z,33.90
2023-02-12T04:12:36.808Z,31.40
2023-02-12T04:15:29.606Z,42.50
2023-02-12T04:18:04.000Z,28.80
2023-02-12T04:21:02.765Z,31.60
2023-02-12T04:23:33.774Z,34.40
2023-02-12T04:26:17.266Z,37.30
2023-02-12T04:29:04.227Z,38.10
2023-02-12T04:31:42.326Z,33.20
2023-02-12T04:34:35.585Z,30.50
2023-02-12T04:37:13.828Z,31.60
2023-02-12T04:39:44.412Z,37.10
2023-02-12T04:42:12.959Z,35.50
2023-02-12T04:44:43.436Z,35.60
2023-02-12T04:47:13.645Z,34.90
2023-02-12T04:49:42.316Z,34.60
2023-02-12T04:52:10.710Z,38.50
2023-02-12T04:54:39.058Z,33.60
2023-02-12T04:57:07.484Z,34.30
2023-02-12T04:59:35.960Z,36.50
2023-02-12T05:02:04.304Z,35.00
2023-02-12T05:04:32.800Z,32.50
2023-02-12T05:07:01.089Z,33.60
2023-02-12T05:09:31.759Z,36.00
2023-02-12T05:12:00.159Z,34.60
2023-02-12T05:14:28.483Z,33.50
2023-02-12T05:16:56.745Z,33.10
2023-02-12T05:19:25.365Z,31.20
2023-02-12T05:21:53.695Z,34.40
2023-02-12T05:24:22.027Z,37.10
2023-02-12T05:26:50.575Z,32.60
2023-02-12T05:29:19.132Z,32.50
2023-02-12T05:31:47.821Z,35.60
2023-02-12T05:34:16.293Z,33.60
2023-02-12T05:36:44.665Z,34.60
2023-02-12T05:39:13.032Z,32.60
2023-02-12T05:41:41.460Z,34.30
2023-02-12T05:44:12.160Z,31.80
2023-02-12T05:46:41.093Z,29.70
2023-02-12T05:49:10.412Z,34.20
2023-02-12T05:51:39.669Z,32.00
2023-02-12T05:54:09.038Z,29.40
2023-02-12T05:56:44.593Z,24.10
2023-02-12T05:59:19.117Z,28.10
2023-02-12T06:01:49.594Z,30.30
2023-02-12T06:04:28.884Z,25.00
2023-02-12T06:06:57.676Z,29.00
2023-02-12T06:09:26.132Z,23.00
2023-02-12T06:11:54.469Z,23.00
2023-02-12T06:14:22.958Z,21.70
2023-02-12T06:16:51.997Z,19.70
2023-02-12T06:19:20.827Z,24.10
2023-02-12T06:21:49.242Z,25.30
2023-02-12T06:24:18.165Z,22.40
2023-02-12T06:26:50.978Z,22.50
2023-02-12T06:29:20.516Z,23.10
2023-02-12T06:31:49.988Z,28.10
2023-02-12T06:34:18.521Z,21.70
2023-02-12T06:36:48.133Z,17.70
2023-02-12T06:39:17.641Z,15.30
2023-02-12T06:41:46.030Z,15.60
2023-02-12T06:44:14.716Z,13.20
2023-02-12T06:46:43.169Z,15.40
2023-02-12T06:49:14.545Z,14.60
2023-02-12T06:51:43.115Z,14.10
2023-02-12T06:54:14.858Z,10.40
2023-02-12T06:56:44.129Z,11.60
2023-02-12T06:59:17.015Z,11.00
2023-02-12T07:01:45.487Z,18.50
2023-02-12T07:04:14.099Z,15.30
2023-02-12T07:06:42.474Z,18.20
2023-02-12T07:09:10.984Z,15.00
2023-02-12T07:11:39.665Z,14.00
2023-02-12T07:14:08.024Z,14.80
2023-02-12T07:16:36.494Z,13.90
2023-02-12T07:19:04.867Z,15.40
2023-02-12T07:21:33.705Z,13.70
2023-02-12T07:24:02.128Z,18.10
2023-02-12T07:26:30.462Z,14.30
2023-02-12T07:29:00.092Z,18.80
2023-02-12T07:31:34.049Z,15.90
2023-02-12T07:34:02.536Z,16.90
2023-02-12T07:36:32.902Z,13.40
2023-02-12T07:39:01.772Z,15.30
2023-02-12T07:41:36.286Z,16.90
2023-02-12T07:44:11.577Z,12.30
2023-02-12T07:46:49.602Z,14.60
2023-02-12T07:49:21.662Z,15.20
2023-02-12T07:51:50.463Z,18.00
2023-02-12T07:54:18.874Z,16.00
2023-02-12T07:56:47.578Z,15.40
2023-02-12T07:59:18.616Z,16.40
2023-02-12T08:01:49.801Z,14.80
2023-02-12T08:04:21.982Z,17.90
2023-02-12T08:06:54.317Z,16.10
2023-02-12T08:09:25.972Z,14.40
2023-02-12T08:11:54.555Z,13.50
2023-02-12T08:14:23.552Z,14.10
2023-02-12T08:16:52.912Z,17.00
2023-02-12T08:19:25.762Z,24.20
2023-02-12T08:21:56.251Z,14.40
2023-02-12T08:24:25.113Z,14.00
2023-02-12T08:26:54.004Z,11.30
2023-02-12T08:29:29.058Z,12.00
2023-02-12T08:34:35.317Z,13.10
2023-02-12T08:37:07.064Z,13.40
2023-02-12T08:39:35.355Z,10.40
2023-02-12T08:42:03.851Z,11.10
2023-02-12T08:44:32.740Z,13.50
2023-02-12T08:47:01.150Z,11.70
2023-02-12T08:49:30.519Z,9.90
2023-02-12T08:52:01.896Z,11.20
2023-02-12T08:54:31.729Z,10.20
2023-02-12T08:57:02.374Z,60.70
2023-02-12T08:59:31.634Z,40.60
2023-02-12T09:02:00.962Z,28.40
2023-02-12T09:04:30.021Z,12.40
2023-02-12T09:06:58.450Z,16.80
2023-02-12T09:09:26.854Z,12.90
2023-02-12T09:11:55.170Z,8.70
2023-02-12T09:14:24.917Z,11.00
2023-02-12T09:16:54.727Z,12.10
2023-02-12T09:19:23.659Z,17.30
2023-02-12T09:21:56.870Z,12.10
2023-02-12T09:24:30.388Z,11.00
2023-02-12T09:27:02.117Z,12.60
2023-02-12T09:29:30.528Z,13.70
2023-02-12T09:31:59.454Z,11.70
2023-02-12T09:34:28.246Z,10.00
2023-02-12T09:36:56.664Z,9.40
2023-02-12T09:39:24.989Z,10.80
2023-02-12T09:41:54.428Z,10.60
2023-02-12T09:44:26.193Z,12.30
2023-02-12T09:47:27.360Z,12.00
2023-02-12T09:50:14.499Z,10.50
2023-02-12T09:52:47.009Z,11.00
2023-02-12T09:55:18.387Z,9.60
2023-02-12T09:57:46.973Z,13.00
2023-02-12T10:00:25.309Z,9.30
2023-02-12T10:02:54.677Z,14.60
2023-02-12T10:08:43.098Z,10.80
2023-02-12T10:11:46.980Z,10.00
2023-02-12T10:14:39.158Z,10.60
2023-02-12T10:17:17.264Z,12.10
2023-02-12T10:20:23.753Z,7.80
2023-02-12T10:23:07.256Z,9.70
2023-02-12T10:25:58.092Z,10.50
